createdAt,value
2022-07-30T00:00:56.961Z,2.00
2022-07-30T00:06:01.708Z,1.90
2022-07-30T00:11:05.007Z,1.80
2022-07-30T00:16:08.520Z,1.58
2022-07-30T00:21:13.241Z,1.55
2022-07-30T00:26:36.782Z,1.38
2022-07-30T00:31:40.346Z,1.40
2022-07-30T00:36:45.311Z,1.25
2022-07-30T00:41:59.346Z,1.10
2022-07-30T00:47:03.201Z,0.80
2022-07-30T00:52:09.166Z,0.90
2022-07-30T00:57:12.670Z,1.00
2022-07-30T01:02:15.995Z,0.70
2022-07-30T01:07:20.890Z,0.70
2022-07-30T01:12:28.889Z,0.70
2022-07-30T01:17:32.234Z,0.70
2022-07-30T01:22:46.798Z,0.70
2022-07-30T01:27:56.035Z,0.70
2022-07-30T01:33:01.248Z,0.70
2022-07-30T01:38:06.568Z,0.77
2022-07-30T01:43:13.791Z,0.70
2022-07-30T01:48:20.656Z,0.73
2022-07-30T01:53:28.332Z,0.65
2022-07-30T01:58:38.780Z,0.63
2022-07-30T02:03:56.604Z,0.68
2022-07-30T02:09:10.529Z,0.60
2022-07-30T02:14:23.154Z,0.68
2022-07-30T02:19:32.663Z,0.70
2022-07-30T02:24:39.006Z,0.60
2022-07-30T02:29:45.668Z,0.50
2022-07-30T02:34:54.877Z,0.70
2022-07-30T02:39:58.653Z,0.90
2022-07-30T02:45:05.158Z,0.80
2022-07-30T02:50:11.039Z,0.63
2022-07-30T02:55:15.941Z,0.80
2022-07-30T03:00:23.106Z,0.88
2022-07-30T03:05:27.815Z,1.10
2022-07-30T03:10:32.302Z,0.85
2022-07-30T03:15:40.093Z,1.15
2022-07-30T03:20:47.231Z,1.08
2022-07-30T03:25:56.646Z,1.20
2022-07-30T03:31:02.466Z,1.30
2022-07-30T03:36:07.426Z,1.90
2022-07-30T03:41:12.902Z,1.60
2022-07-30T03:46:20.183Z,1.15
2022-07-30T03:51:33.151Z,1.10
2022-07-30T03:56:37.672Z,1.10
2022-07-30T04:01:52.837Z,1.20
2022-07-30T04:07:06.913Z,1.02
2022-07-30T04:12:10.687Z,1.05
2022-07-30T04:17:22.650Z,0.90
2022-07-30T04:22:33.264Z,1.10
2022-07-30T04:27:37.805Z,1.10
2022-07-30T04:33:03.692Z,1.20
2022-07-30T04:38:15.820Z,1.00
2022-07-30T04:43:22.793Z,1.10
2022-07-30T04:48:28.585Z,1.52
2022-07-30T04:53:51.685Z,1.00
2022-07-30T04:58:58.257Z,1.05
2022-07-30T05:04:05.942Z,1.25
2022-07-30T05:09:09.421Z,1.02
2022-07-30T05:14:13.295Z,1.13
2022-07-30T05:19:18.964Z,1.10
2022-07-30T05:24:22.717Z,1.20
2022-07-30T05:29:31.898Z,1.10
2022-07-30T05:34:50.089Z,1.00
2022-07-30T05:39:58.795Z,1.00
2022-07-30T05:45:25.436Z,1.05
2022-07-30T05:50:30.201Z,0.90
2022-07-30T05:55:36.283Z,0.80
2022-07-30T06:01:05.775Z,0.95
2022-07-30T06:06:11.203Z,0.75
2022-07-30T06:11:15.029Z,0.60
2022-07-30T06:16:18.844Z,0.70
2022-07-30T06:21:24.083Z,0.80
2022-07-30T06:26:40.230Z,0.70
2022-07-30T06:31:44.275Z,0.70
2022-07-30T06:36:51.214Z,0.90
2022-07-30T06:41:56.420Z,0.77
2022-07-30T06:47:07.794Z,0.60
2022-07-30T06:52:18.539Z,0.82
2022-07-30T06:57:26.750Z,0.80
2022-07-30T07:02:30.296Z,0.80
2022-07-30T07:07:58.140Z,0.70
2022-07-30T07:13:03.707Z,0.63
2022-07-30T07:18:12.775Z,0.90
2022-07-30T07:23:20.206Z,0.70
2022-07-30T07:28:30.654Z,0.65
2022-07-30T07:33:37.887Z,0.77
2022-07-30T07:38:42.797Z,0.85
2022-07-30T07:43:46.723Z,0.60
2022-07-30T07:48:57.330Z,0.90
2022-07-30T07:54:22.090Z,0.95
2022-07-30T07:59:35.998Z,1.00
2022-07-30T08:04:51.425Z,0.70
2022-07-30T08:10:16.182Z,0.90
2022-07-30T08:15:38.386Z,0.75
2022-07-30T08:21:08.712Z,0.90
2022-07-30T08:26:13.646Z,0.90
2022-07-30T08:31:17.069Z,0.85
2022-07-30T08:36:25.780Z,1.00
2022-07-30T08:41:32.663Z,0.90
2022-07-30T08:46:37.560Z,0.85
2022-07-30T08:51:51.362Z,0.93
2022-07-30T08:57:19.418Z,0.75
2022-07-30T09:02:27.553Z,0.80
2022-07-30T09:07:49.494Z,1.00
2022-07-30T09:12:58.995Z,0.95
2022-07-30T09:18:03.737Z,1.00
2022-07-30T09:23:10.186Z,1.10
2022-07-30T09:28:35.067Z,1.10
2022-07-30T09:33:50.407Z,1.10
2022-07-30T09:39:12.610Z,1.00
2022-07-30T09:44:43.609Z,1.10
2022-07-30T09:49:53.587Z,1.30
2022-07-30T09:54:57.108Z,1.20
2022-07-30T10:00:23.466Z,1.70
2022-07-30T10:05:54.136Z,1.35
2022-07-30T10:10:58.985Z,1.55
2022-07-30T10:16:13.324Z,1.30
2022-07-30T10:21:17.057Z,1.67
2022-07-30T10:26:44.827Z,1.42
2022-07-30T10:32:17.048Z,1.45
2022-07-30T10:37:21.705Z,1.40
2022-07-30T10:42:41.153Z,1.52
2022-07-30T10:47:49.203Z,1.50
2022-07-30T10:52:54.708Z,1.90
2022-07-30T10:58:01.236Z,1.77
2022-07-30T11:03:22.203Z,1.77
2022-07-30T11:08:42.868Z,2.13
2022-07-30T11:13:55.063Z,2.15
2022-07-30T11:24:45.396Z,1.92
2022-07-30T11:29:50.967Z,1.98
2022-07-30T11:35:16.553Z,2.00
2022-07-30T11:40:26.233Z,2.00
2022-07-30T11:45:32.810Z,1.88
2022-07-30T11:50:37.881Z,1.88
2022-07-30T11:55:43.482Z,2.10
2022-07-30T12:00:48.114Z,2.00
2022-07-30T12:05:53.648Z,2.10
2022-07-30T12:10:59.621Z,2.17
2022-07-30T12:16:09.089Z,1.92
2022-07-30T12:21:16.316Z,2.00
2022-07-30T12:26:24.675Z,1.80
2022-07-30T12:31:30.504Z,2.15
2022-07-30T12:36:36.990Z,1.75
2022-07-30T12:41:45.466Z,2.00
2022-07-30T12:46:49.015Z,2.10
2022-07-30T12:51:59.560Z,2.33
2022-07-30T12:57:06.370Z,1.92
2022-07-30T13:02:10.127Z,2.10
2022-07-30T13:07:14.808Z,2.00
2022-07-30T13:12:18.105Z,1.83
2022-07-30T13:17:21.425Z,1.90
2022-07-30T13:22:26.076Z,1.80
2022-07-30T13:27:30.329Z,1.98
2022-07-30T13:32:34.167Z,1.67
2022-07-30T13:37:38.920Z,1.65
2022-07-30T13:42:42.452Z,1.77
2022-07-30T13:47:45.740Z,1.98
2022-07-30T13:52:50.572Z,2.20
2022-07-30T13:57:54.134Z,2.10
2022-07-30T14:02:58.127Z,2.13
2022-07-30T14:08:04.196Z,2.10
2022-07-30T14:13:09.712Z,1.88
2022-07-30T14:18:12.978Z,1.90
2022-07-30T14:23:17.917Z,2.00
2022-07-30T14:28:21.266Z,1.90
2022-07-30T14:33:24.643Z,1.80
2022-07-30T14:38:29.758Z,1.80
2022-07-30T14:43:33.083Z,1.58
2022-07-30T14:48:36.418Z,1.73
2022-07-30T14:53:41.109Z,2.13
2022-07-30T14:58:44.604Z,2.00
2022-07-30T15:03:48.535Z,1.80
2022-07-30T15:08:53.235Z,1.80
2022-07-30T15:13:56.618Z,1.80
2022-07-30T15:19:01.162Z,1.70
2022-07-30T15:24:06.559Z,1.52
2022-07-30T15:29:13.267Z,1.60
2022-07-30T15:34:17.028Z,1.48
2022-07-30T15:39:21.674Z,1.45
2022-07-30T15:44:25.333Z,2.20
2022-07-30T15:49:29.065Z,1.48
2022-07-30T15:54:33.840Z,1.50
2022-07-30T15:59:37.159Z,1.50
2022-07-30T16:04:40.572Z,1.48
2022-07-30T16:09:45.979Z,1.40
2022-07-30T16:14:49.401Z,1.42
2022-07-30T16:19:52.709Z,1.38
2022-07-30T16:24:57.457Z,1.50
2022-07-30T16:30:01.901Z,1.27
2022-07-30T16:35:08.400Z,1.10
2022-07-30T16:40:15.298Z,1.30
2022-07-30T16:45:18.605Z,1.00
2022-07-30T16:50:22.163Z,1.00
2022-07-30T16:55:27.275Z,1.13
2022-07-30T17:00:30.809Z,1.20
2022-07-30T17:05:34.354Z,0.90
2022-07-30T17:10:39.017Z,1.02
2022-07-30T17:15:45.576Z,1.05
2022-07-30T17:20:50.433Z,1.10
2022-07-30T17:25:55.159Z,1.20
2022-07-30T17:30:58.551Z,0.98
2022-07-30T17:36:02.950Z,1.17
2022-07-30T17:41:13.120Z,1.20
2022-07-30T17:46:17.572Z,1.40
2022-07-30T17:51:21.307Z,1.30
2022-07-30T17:56:27.140Z,1.30
2022-07-30T18:01:30.848Z,1.30
2022-07-30T18:06:34.311Z,1.30
2022-07-30T18:11:39.090Z,1.48
2022-07-30T18:16:42.600Z,1.30
2022-07-30T18:21:45.938Z,1.40
2022-07-30T18:26:51.101Z,1.52
2022-07-30T18:31:54.424Z,1.70
2022-07-30T18:36:58.131Z,1.67
2022-07-30T18:42:03.829Z,1.50
2022-07-30T18:47:07.633Z,1.40
2022-07-30T18:52:11.131Z,1.55
2022-07-30T18:57:16.157Z,1.83
2022-07-30T19:02:19.451Z,1.65
2022-07-30T19:07:23.510Z,1.73
2022-07-30T19:12:28.715Z,1.55
2022-07-30T19:17:46.326Z,1.52
2022-07-30T19:22:50.408Z,1.75
2022-07-30T19:27:55.152Z,1.77
2022-07-30T19:33:04.916Z,1.80
2022-07-30T19:38:10.504Z,1.42
2022-07-30T19:43:23.724Z,1.40
2022-07-30T19:48:31.474Z,1.55
2022-07-30T19:53:35.736Z,1.35
2022-07-30T19:58:40.574Z,1.67
2022-07-30T20:03:46.015Z,1.70
2022-07-30T20:08:49.761Z,1.83
2022-07-30T20:13:54.548Z,1.77
2022-07-30T20:18:59.337Z,1.75
2022-07-30T20:24:02.783Z,1.83
2022-07-30T20:29:09.177Z,1.50
2022-07-30T20:34:26.015Z,1.50
2022-07-30T20:39:30.895Z,1.90
2022-07-30T20:44:37.696Z,1.70
2022-07-30T20:49:42.122Z,2.20
2022-07-30T20:54:45.455Z,1.30
2022-07-30T20:59:50.035Z,1.67
2022-07-30T21:04:56.664Z,1.83
2022-07-30T21:10:03.059Z,1.40
2022-07-30T21:15:24.225Z,1.50
2022-07-30T21:20:28.302Z,1.40
2022-07-30T21:25:32.393Z,1.80
2022-07-30T21:30:38.086Z,1.45
2022-07-30T21:35:42.453Z,1.85
2022-07-30T21:40:45.913Z,1.70
2022-07-30T21:45:54.882Z,1.60
2022-07-30T21:50:59.064Z,1.67
2022-07-30T21:56:02.441Z,1.55
2022-07-30T22:01:18.010Z,1.80
2022-07-30T22:06:21.998Z,2.13
2022-07-30T22:11:27.417Z,2.00
2022-07-30T22:16:47.720Z,1.80
2022-07-30T22:21:51.201Z,1.95
2022-07-30T22:26:54.812Z,2.10
2022-07-30T22:32:01.911Z,1.95
2022-07-30T22:37:09.265Z,1.77
2022-07-30T22:42:16.322Z,1.95
2022-07-30T22:47:51.483Z,1.63
2022-07-30T22:52:52.910Z,1.70
2022-07-30T22:58:07.961Z,1.92
2022-07-30T23:03:14.514Z,1.90
2022-07-30T23:08:30.290Z,2.10
2022-07-30T23:13:34.145Z,1.65
2022-07-30T23:18:39.172Z,2.15
2022-07-30T23:23:42.532Z,1.55
2022-07-30T23:28:47.367Z,2.05
2022-07-30T23:33:52.401Z,1.85
2022-07-30T23:38:55.948Z,2.17
2022-07-30T23:44:01.361Z,2.20
2022-07-30T23:49:06.184Z,1.92
2022-07-30T23:54:09.560Z,1.98
2022-07-30T23:59:12.999Z,2.20
